This is the latest recevied weather packets stored in our database for station/object KD4EG. If no packets are shown the sender has not sent any weather packets the latest 1 day(s).
| Time | Temp. | Humidity | Pressure | Rain* | Wind** | Luminosity | Snow |
|---|---|---|---|---|---|---|---|
| 1778010135 | 27.22° C | 25% | 1014.2 hPa | 0 mm | 0.89 m/s, 308° | 560 W/m² | - |
| 1778009831 | 27.22° C | 23% | 1014.1 hPa | 0 mm | 1.34 m/s, 270° | 561 W/m² | - |
| 1778009528 | 27.78° C | 23% | 1014.2 hPa | 0 mm | 4.92 m/s, 217° | 567 W/m² | - |
| 1778009227 | 27.78° C | 23% | 1014.2 hPa | 0 mm | 1.79 m/s, 300° | 604 W/m² | - |
| 1778008924 | 27.78° C | 24% | 1013.8 hPa | 0 mm | 2.24 m/s, 283° | 597 W/m² | - |
| 1778008622 | 27.78° C | 23% | 1014.1 hPa | 0 mm | 1.34 m/s, 344° | 637 W/m² | - |
| 1778008320 | 27.78° C | 24% | 1014.1 hPa | 0 mm | 5.36 m/s, 329° | 636 W/m² | - |
| 1778008016 | 27.22° C | 26% | 1014.1 hPa | 0 mm | 3.13 m/s, 312° | 668 W/m² | - |
| 1778007715 | 27.78° C | 29% | 1014.2 hPa | 0 mm | 4.47 m/s, 3° | 638 W/m² | - |
| 1778007413 | 26.67° C | 30% | 1014 hPa | 0 mm | 1.34 m/s, 269° | 526 W/m² | - |
| 1778007109 | 27.22° C | 34% | 1014.3 hPa | 0 mm | 4.02 m/s, 176° | 660 W/m² | - |
| 1778006805 | 27.22° C | 36% | 1014.3 hPa | 0 mm | 2.24 m/s, 175° | 691 W/m² | - |
| 1778006502 | 26.67° C | 39% | 1014.5 hPa | 0 mm | 1.79 m/s, 210° | 774 W/m² | - |
| 1778006199 | 26.11° C | 39% | 1014.5 hPa | 0 mm | 0.89 m/s, 51° | 580 W/m² | - |
| 1778005897 | 26.11° C | 39% | 1014.7 hPa | 0 mm | 2.24 m/s, 134° | 468 W/m² | - |
| 1778005593 | 25.56° C | 41% | 1014.7 hPa | 0 mm | 3.13 m/s, 152° | 492 W/m² | - |
| 1778005290 | 25.56° C | 41% | 1014.9 hPa | 0 mm | 3.13 m/s, 237° | 572 W/m² | - |
| 1778004986 | 25.56° C | 42% | 1014.8 hPa | 0 mm | 2.68 m/s, 172° | 506 W/m² | - |
| 1778004684 | 25.56° C | 42% | 1015.4 hPa | 0 mm | 1.34 m/s, 268° | 318 W/m² | - |
| 1778004380 | 25.56° C | 41% | 1015 hPa | 0 mm | 0.89 m/s, 223° | 325 W/m² | - |
| 1778004078 | 25.56° C | 41% | 1015.1 hPa | 0 mm | 1.34 m/s, 181° | 516 W/m² | - |
| 1778003773 | 26.11° C | 36% | 1015 hPa | 0 mm | 1.34 m/s, 182° | 266 W/m² | - |
| 1778003470 | 26.11° C | 36% | 1015.2 hPa | 0 mm | 1.79 m/s, 284° | 577 W/m² | - |
| 1778003167 | 25.56° C | 37% | 1015.1 hPa | 0 mm | 1.34 m/s, 208° | 619 W/m² | - |
| 1778002863 | 26.11° C | 35% | 1015.2 hPa | 0 mm | 2.68 m/s, 249° | 546 W/m² | - |
* Rain latest hour (hover to see other rain measurements)
** Current wind speed in m/s (hover to see current wind gust speed)